Time;durP1;ratioP1;P1;durP2;ratioP2;P2;SDS_P1;SDS_P2;PMS_P1;PMS_P2;Temp;Humidity;BMP_temperature;BMP_pressure;BME280_temperature;BME280_humidity;BME280_pressure;Samples;Min_cycle;Max_cycle;Signal;HPM_P1;HPM_P2
2023/12/13 00:01:41;;;;;;;25.50;12.95;;;9.00;99.90;;;;;;5073272;28;20488;-90
2023/12/13 00:04:07;;;;;;;22.00;13.20;;;9.00;99.90;;;;;;5072761;28;20036;-90
2023/12/13 00:06:34;;;;;;;25.65;13.15;;;9.00;99.90;;;;;;5059448;28;20408;-91
2023/12/13 00:09:01;;;;;;;26.45;13.60;;;9.00;99.90;;;;;;5058426;28;20063;-90
2023/12/13 00:11:27;;;;;;;21.23;12.60;;;9.00;99.90;;;;;;5041716;28;20040;-90
2023/12/13 00:13:52;;;;;;;22.48;11.40;;;9.00;99.90;;;;;;5058232;28;20553;-90
2023/12/13 00:16:20;;;;;;;24.48;12.05;;;9.00;99.90;;;;;;5058554;28;20029;-91
2023/12/13 00:18:47;;;;;;;24.25;11.48;;;9.00;99.90;;;;;;5042230;28;20044;-91
2023/12/13 00:21:15;;;;;;;25.05;11.88;;;9.00;99.90;;;;;;5040385;28;20029;-91
2023/12/13 00:23:42;;;;;;;25.27;12.48;;;9.00;99.90;;;;;;5057082;28;20130;-91
2023/12/13 00:26:18;;;;;;;24.10;11.15;;;9.00;99.90;;;;;;5056588;28;20049;-90
2023/12/13 00:28:45;;;;;;;23.63;11.55;;;9.00;99.90;;;;;;5057025;28;20041;-90
2023/12/13 00:31:11;;;;;;;23.10;12.20;;;9.00;99.90;;;;;;5039880;28;20045;-90
2023/12/13 00:33:38;;;;;;;21.10;10.32;;;9.00;99.90;;;;;;5042525;28;20574;-90
2023/12/13 00:36:04;;;;;;;25.52;11.60;;;9.00;99.90;;;;;;5056558;28;20037;-90
2023/12/13 00:38:30;;;;;;;22.25;12.43;;;9.00;99.90;;;;;;5041275;28;20040;-90
2023/12/13 00:40:55;;;;;;;24.23;11.43;;;9.00;99.90;;;;;;5039750;28;20045;-90
2023/12/13 00:43:21;;;;;;;21.48;10.15;;;9.00;99.90;;;;;;5058093;28;20036;-90
2023/12/13 00:45:47;;;;;;;17.40;9.63;;;9.00;99.90;;;;;;5064002;28;20044;-90
2023/12/13 00:48:13;;;;;;;17.55;9.18;;;9.00;99.90;;;;;;5071120;28;20407;-90
2023/12/13 00:50:39;;;;;;;19.60;9.70;;;9.00;99.90;;;;;;5054312;28;20043;-90
2023/12/13 00:53:04;;;;;;;19.23;8.85;;;9.00;99.90;;;;;;5053947;28;20040;-90
2023/12/13 00:55:30;;;;;;;18.60;9.63;;;8.90;99.90;;;;;;5054304;28;20451;-90
2023/12/13 00:57:57;;;;;;;17.05;7.72;;;9.00;99.90;;;;;;5053608;28;20086;-90
2023/12/13 01:00:22;;;;;;;17.33;9.23;;;8.90;99.90;;;;;;5070459;28;20040;-91
2023/12/13 01:02:48;;;;;;;16.58;8.15;;;8.90;99.90;;;;;;5053396;28;20125;-90
2023/12/13 01:05:14;;;;;;;17.73;8.32;;;8.90;99.90;;;;;;5071985;28;20109;-90
2023/12/13 01:07:39;;;;;;;19.80;8.77;;;8.90;99.90;;;;;;5053606;28;20063;-90
2023/12/13 01:10:05;;;;;;;19.83;9.80;;;8.90;99.90;;;;;;5070853;28;20450;-91
2023/12/13 01:12:31;;;;;;;17.60;7.95;;;8.90;99.90;;;;;;5071424;28;20044;-90
2023/12/13 01:14:57;;;;;;;17.90;8.18;;;8.90;99.90;;;;;;5071737;28;20059;-90
2023/12/13 01:17:22;;;;;;;16.90;8.73;;;8.90;99.90;;;;;;5071931;28;20116;-90
2023/12/13 01:19:50;;;;;;;16.23;7.70;;;8.90;99.90;;;;;;5053621;28;20407;-90
2023/12/13 01:22:15;;;;;;;13.57;7.10;;;8.90;99.90;;;;;;5053110;28;20036;-90
2023/12/13 01:24:41;;;;;;;13.18;6.55;;;8.80;99.90;;;;;;5053673;28;20135;-90
2023/12/13 01:27:07;;;;;;;13.90;7.35;;;8.80;99.90;;;;;;5071770;28;20036;-90
2023/12/13 01:29:32;;;;;;;13.05;6.80;;;8.80;99.90;;;;;;5057150;28;20491;-90
2023/12/13 01:31:58;;;;;;;14.50;7.20;;;8.80;99.90;;;;;;5060155;28;20617;-90
2023/12/13 01:34:23;;;;;;;20.08;7.80;;;8.80;99.90;;;;;;5070230;28;20036;-91
2023/12/13 01:36:49;;;;;;;13.35;7.07;;;8.80;99.90;;;;;;5052518;28;20479;-91
2023/12/13 01:39:15;;;;;;;14.93;7.38;;;8.80;99.90;;;;;;5071377;28;20043;-90
2023/12/13 01:41:44;;;;;;;14.10;6.65;;;8.80;99.90;;;;;;5070082;28;20044;-91
2023/12/13 01:44:10;;;;;;;11.32;5.20;;;8.80;99.90;;;;;;5053577;28;20036;-90
2023/12/13 01:46:37;;;;;;;10.50;5.45;;;8.80;99.90;;;;;;5071306;28;20067;-90
2023/12/13 01:49:06;;;;;;;13.32;6.20;;;8.80;99.90;;;;;;5071180;28;20033;-91
2023/12/13 01:51:36;;;;;;;13.32;5.80;;;8.80;99.90;;;;;;5053181;28;20041;-90
2023/12/13 01:54:09;;;;;;;10.27;5.10;;;8.80;99.90;;;;;;5053039;28;20041;-90
2023/12/13 01:56:38;;;;;;;11.50;5.40;;;8.80;99.90;;;;;;5053505;28;20073;-90
2023/12/13 01:59:04;;;;;;;10.13;4.85;;;8.70;99.90;;;;;;5053151;28;20043;-91
2023/12/13 02:01:30;;;;;;;11.82;4.82;;;8.80;99.90;;;;;;5053444;28;20032;-90
2023/12/13 02:03:56;;;;;;;11.73;4.18;;;8.70;99.90;;;;;;5069597;28;20044;-90
2023/12/13 02:06:22;;;;;;;9.23;4.50;;;8.70;99.90;;;;;;5053264;28;20044;-91
2023/12/13 02:08:48;;;;;;;10.85;5.53;;;8.70;99.90;;;;;;5053034;28;20048;-90
2023/12/13 02:11:13;;;;;;;11.88;5.68;;;8.70;99.90;;;;;;5069968;28;20032;-90
2023/12/13 02:13:39;;;;;;;12.05;4.97;;;8.80;99.90;;;;;;5052067;28;20468;-90
2023/12/13 02:16:06;;;;;;;13.65;4.68;;;8.70;99.90;;;;;;5077449;28;20036;-89
2023/12/13 02:18:32;;;;;;;10.55;5.18;;;8.70;99.90;;;;;;5047561;28;20044;-90
2023/12/13 02:20:57;;;;;;;10.90;5.18;;;8.80;99.90;;;;;;5043217;28;20045;-91
2023/12/13 02:23:23;;;;;;;10.00;4.65;;;8.70;99.90;;;;;;5059336;28;20041;-90
2023/12/13 02:25:56;;;;;;;12.40;4.65;;;8.70;99.90;;;;;;5044273;28;20037;-90
2023/12/13 02:28:24;;;;;;;11.93;5.88;;;8.70;99.90;;;;;;5063374;28;20115;-90
2023/12/13 02:30:53;;;;;;;12.55;5.78;;;8.70;99.90;;;;;;5052872;28;20526;-90
2023/12/13 02:33:23;;;;;;;11.10;5.18;;;8.70;99.90;;;;;;5069506;28;20056;-90
2023/12/13 02:35:49;;;;;;;10.50;5.35;;;8.70;99.90;;;;;;5052999;28;20623;-90
2023/12/13 02:38:15;;;;;;;11.95;5.25;;;8.70;99.90;;;;;;5052993;28;20151;-90
2023/12/13 02:40:40;;;;;;;11.10;5.90;;;8.70;99.90;;;;;;5071750;28;20056;-90
2023/12/13 02:43:06;;;;;;;10.85;5.82;;;8.70;99.90;;;;;;5057148;28;20045;-90
2023/12/13 02:45:31;;;;;;;12.50;6.00;;;8.70;99.90;;;;;;5056767;28;20408;-90
2023/12/13 02:47:59;;;;;;;11.75;6.25;;;8.70;99.90;;;;;;5057116;28;20070;-90
2023/12/13 02:50:25;;;;;;;14.23;6.22;;;8.70;99.90;;;;;;5057091;28;20063;-90
2023/12/13 02:52:51;;;;;;;12.23;6.03;;;8.70;99.90;;;;;;5074665;28;20438;-90
2023/12/13 02:55:17;;;;;;;11.23;6.20;;;8.70;99.90;;;;;;5056749;28;20384;-90
2023/12/13 02:57:42;;;;;;;13.93;6.07;;;8.70;99.90;;;;;;5056724;28;20456;-90
2023/12/13 03:00:08;;;;;;;13.13;6.00;;;8.70;99.90;;;;;;5056556;28;20037;-90
2023/12/13 03:02:35;;;;;;;14.02;6.60;;;8.70;99.90;;;;;;5056615;28;20071;-90
2023/12/13 03:05:03;;;;;;;14.45;5.97;;;8.70;99.90;;;;;;5074550;28;20458;-90
2023/12/13 03:07:28;;;;;;;14.05;5.22;;;8.70;99.90;;;;;;5073158;28;20044;-90
2023/12/13 03:09:54;;;;;;;11.55;5.60;;;8.70;99.90;;;;;;5073341;28;20051;-89
2023/12/13 03:12:20;;;;;;;10.98;5.10;;;8.70;99.90;;;;;;5056196;28;20495;-90
2023/12/13 03:14:46;;;;;;;10.63;5.32;;;8.70;99.90;;;;;;5072791;28;20091;-90
2023/12/13 03:17:12;;;;;;;13.73;6.47;;;8.70;99.90;;;;;;5056517;28;20044;-90
2023/12/13 03:19:38;;;;;;;10.55;5.78;;;8.70;99.90;;;;;;5074216;28;20036;-90
2023/12/13 03:22:04;;;;;;;14.13;6.10;;;8.70;99.90;;;;;;5074166;28;20101;-90
2023/12/13 03:24:30;;;;;;;13.10;6.10;;;8.70;99.90;;;;;;5072612;28;20185;-90
2023/12/13 03:26:55;;;;;;;15.05;6.72;;;8.70;99.90;;;;;;5072603;28;20041;-90
2023/12/13 03:29:21;;;;;;;15.57;6.90;;;8.70;99.90;;;;;;5072361;28;20044;-90
2023/12/13 03:31:47;;;;;;;12.52;6.88;;;8.70;99.90;;;;;;5055882;28;20033;-90
2023/12/13 03:34:14;;;;;;;15.98;6.43;;;8.70;99.90;;;;;;5056021;28;20117;-90
2023/12/13 03:36:40;;;;;;;14.20;6.03;;;8.70;99.90;;;;;;5073965;28;20048;-89
2023/12/13 03:39:07;;;;;;;14.35;6.90;;;8.70;99.90;;;;;;5055672;28;20033;-90
2023/12/13 03:41:33;;;;;;;15.18;6.70;;;8.70;99.90;;;;;;5055847;28;20121;-89
2023/12/13 03:43:59;;;;;;;13.10;7.28;;;8.70;99.90;;;;;;5055636;28;20491;-90
2023/12/13 03:46:24;;;;;;;11.93;5.72;;;8.70;99.90;;;;;;5072742;28;20032;-89
2023/12/13 03:48:50;;;;;;;13.43;7.68;;;8.70;99.90;;;;;;5073615;28;20553;-90
2023/12/13 03:51:16;;;;;;;13.95;6.47;;;8.80;99.90;;;;;;5073216;28;20080;-90
2023/12/13 03:53:42;;;;;;;13.20;6.22;;;8.80;99.90;;;;;;5072143;28;20415;-90
2023/12/13 03:56:09;;;;;;;15.88;7.88;;;8.70;99.90;;;;;;5072387;28;20044;-90
2023/12/13 03:58:35;;;;;;;15.63;7.60;;;8.80;99.90;;;;;;5072112;28;20075;-90
2023/12/13 04:01:01;;;;;;;10.93;6.03;;;8.80;99.90;;;;;;5074282;28;20078;-90
2023/12/13 04:03:27;;;;;;;14.15;6.25;;;8.80;99.90;;;;;;5073887;28;20053;-90
2023/12/13 04:05:52;;;;;;;12.05;5.45;;;8.70;99.90;;;;;;5064844;28;20063;-90
2023/12/13 04:08:18;;;;;;;12.32;5.97;;;8.70;99.90;;;;;;5057506;28;20090;-90
2023/12/13 04:10:43;;;;;;;15.30;6.68;;;8.80;99.90;;;;;;5072943;28;20036;-90
2023/12/13 04:13:09;;;;;;;12.75;5.55;;;8.70;99.90;;;;;;5071540;28;20044;-90
2023/12/13 04:15:35;;;;;;;11.80;5.72;;;8.80;99.90;;;;;;5073145;28;20040;-90
2023/12/13 04:18:01;;;;;;;12.00;5.50;;;8.80;99.90;;;;;;5071856;28;20044;-90
2023/12/13 04:20:26;;;;;;;15.52;7.38;;;8.80;99.90;;;;;;5072974;28;20045;-90
2023/12/13 04:22:52;;;;;;;14.45;6.05;;;8.80;99.90;;;;;;5072837;28;20153;-90
2023/12/13 04:25:18;;;;;;;12.80;6.43;;;8.80;99.90;;;;;;5072663;28;20043;-90
2023/12/13 04:27:45;;;;;;;13.05;5.63;;;8.80;99.90;;;;;;5054499;28;20411;-90
2023/12/13 04:30:11;;;;;;;12.98;6.78;;;8.80;99.90;;;;;;5054997;28;20044;-90
2023/12/13 04:32:40;;;;;;;14.60;6.47;;;8.70;99.90;;;;;;5071463;28;20041;-90
2023/12/13 04:35:08;;;;;;;14.70;5.82;;;8.80;99.90;;;;;;5071934;28;20408;-90
2023/12/13 04:37:34;;;;;;;16.10;7.55;;;8.70;99.90;;;;;;5054716;28;20119;-90
2023/12/13 04:40:00;;;;;;;13.38;7.07;;;8.80;99.90;;;;;;5072610;28;20111;-90
2023/12/13 04:42:25;;;;;;;13.75;7.03;;;8.80;99.90;;;;;;5072465;28;20043;-89
2023/12/13 04:44:53;;;;;;;12.80;5.88;;;8.70;99.90;;;;;;5071388;28;20071;-90
2023/12/13 04:47:19;;;;;;;12.43;6.28;;;8.80;99.90;;;;;;5072761;28;20044;-90
2023/12/13 04:49:45;;;;;;;12.27;6.05;;;8.80;99.90;;;;;;5054198;28;20040;-89
2023/12/13 04:52:10;;;;;;;16.13;7.40;;;8.80;99.90;;;;;;5070862;28;20075;-89
2023/12/13 04:54:37;;;;;;;13.43;6.55;;;8.80;99.90;;;;;;5070371;28;20123;-90
2023/12/13 04:57:03;;;;;;;13.65;6.50;;;8.80;99.90;;;;;;5054382;28;20033;-90
2023/12/13 04:59:29;;;;;;;15.20;5.68;;;8.80;99.90;;;;;;5071055;28;20041;-90
2023/12/13 05:01:55;;;;;;;11.43;5.63;;;8.80;99.90;;;;;;5070297;28;20037;-90
2023/12/13 05:04:20;;;;;;;12.02;6.32;;;8.80;99.90;;;;;;5070462;28;20048;-90
2023/12/13 05:06:46;;;;;;;11.40;5.85;;;8.80;99.90;;;;;;5054526;28;20078;-90
2023/12/13 05:09:12;;;;;;;15.77;7.03;;;8.80;99.90;;;;;;5070667;28;20475;-90
2023/12/13 05:11:37;;;;;;;11.65;5.40;;;8.80;99.90;;;;;;5071787;28;20043;-90
2023/12/13 05:14:03;;;;;;;15.23;6.75;;;8.80;99.90;;;;;;5053773;28;20500;-90
2023/12/13 05:16:29;;;;;;;13.98;6.88;;;8.80;99.90;;;;;;5054200;28;20103;-89
2023/12/13 05:18:54;;;;;;;14.60;7.45;;;8.80;99.90;;;;;;5071712;28;20120;-90
2023/12/13 05:21:21;;;;;;;14.88;7.22;;;8.80;99.90;;;;;;5070680;28;20036;-90
2023/12/13 05:23:47;;;;;;;15.68;7.47;;;8.80;99.90;;;;;;5053469;28;20079;-90
2023/12/13 05:26:13;;;;;;;13.55;6.65;;;8.80;99.90;;;;;;5070733;28;20047;-90
2023/12/13 05:28:38;;;;;;;15.88;7.28;;;8.80;99.90;;;;;;5053926;28;20048;-90
2023/12/13 05:31:04;;;;;;;13.63;7.03;;;8.80;99.90;;;;;;5053637;28;20036;-90
2023/12/13 05:33:30;;;;;;;13.48;6.70;;;8.80;99.90;;;;;;5053556;28;20048;-90
2023/12/13 05:35:56;;;;;;;17.23;7.20;;;8.80;99.90;;;;;;5071686;28;20467;-90
2023/12/13 05:38:21;;;;;;;16.73;8.20;;;8.80;99.90;;;;;;5071735;28;20102;-90
2023/12/13 05:40:47;;;;;;;14.05;6.72;;;8.80;99.90;;;;;;5071212;28;20549;-90
2023/12/13 05:43:13;;;;;;;13.88;6.65;;;8.80;99.90;;;;;;5071316;28;20044;-89
2023/12/13 05:45:38;;;;;;;13.88;7.32;;;8.80;99.90;;;;;;5071363;28;20036;-90
2023/12/13 05:48:05;;;;;;;14.55;7.22;;;8.80;99.90;;;;;;5053548;28;20082;-90
2023/12/13 05:50:30;;;;;;;15.25;6.55;;;8.80;99.90;;;;;;5070009;28;20519;-90
2023/12/13 05:52:56;;;;;;;14.48;7.65;;;8.80;99.90;;;;;;5052782;28;20044;-90
2023/12/13 05:55:22;;;;;;;12.73;6.50;;;8.80;99.90;;;;;;5071454;28;20599;-90
2023/12/13 05:57:48;;;;;;;13.02;6.13;;;8.80;99.90;;;;;;5069943;28;20407;-89
2023/12/13 06:00:14;;;;;;;13.63;6.40;;;8.80;99.90;;;;;;5053050;28;20416;-89
2023/12/13 06:02:40;;;;;;;15.27;7.10;;;8.80;99.90;;;;;;5070051;28;20146;-89
2023/12/13 06:05:06;;;;;;;11.75;5.78;;;8.80;99.90;;;;;;5071277;28;20385;-90
2023/12/13 06:07:32;;;;;;;14.05;5.95;;;8.80;99.90;;;;;;5052961;28;20044;-90
2023/12/13 06:09:58;;;;;;;16.67;7.07;;;8.80;99.90;;;;;;5053236;28;20381;-90
2023/12/13 06:12:24;;;;;;;16.65;8.00;;;8.70;99.90;;;;;;5070943;28;20412;-89
2023/12/13 06:14:50;;;;;;;15.00;6.85;;;8.80;99.90;;;;;;5069361;28;20407;-89
2023/12/13 06:17:16;;;;;;;14.13;6.72;;;8.70;99.90;;;;;;5071145;28;20028;-90
2023/12/13 06:19:41;;;;;;;16.67;7.15;;;8.80;99.90;;;;;;5053274;28;20037;-90
2023/12/13 06:22:07;;;;;;;12.10;6.20;;;8.80;99.90;;;;;;5070646;28;20046;-90
2023/12/13 06:24:33;;;;;;;13.30;7.32;;;8.80;99.90;;;;;;5052951;28;20119;-90
2023/12/13 06:26:59;;;;;;;12.52;6.53;;;8.70;99.90;;;;;;5053019;28;20111;-90
2023/12/13 06:29:25;;;;;;;14.48;6.53;;;8.80;99.90;;;;;;5053041;28;20063;-90
2023/12/13 06:31:51;;;;;;;15.75;6.85;;;8.80;99.90;;;;;;5052674;28;20033;-90
2023/12/13 06:34:16;;;;;;;15.20;6.38;;;8.80;99.90;;;;;;5052971;28;20056;-90
2023/12/13 06:36:42;;;;;;;17.73;8.15;;;8.80;99.90;;;;;;5071463;28;20024;-90
2023/12/13 06:39:11;;;;;;;14.75;7.93;;;8.80;99.90;;;;;;5053892;28;20557;-90
2023/12/13 06:41:37;;;;;;;16.25;7.03;;;8.80;99.90;;;;;;5077618;28;20069;-89
2023/12/13 06:44:03;;;;;;;20.02;8.57;;;8.80;99.90;;;;;;5072443;28;20105;-89
2023/12/13 06:46:29;;;;;;;11.93;6.40;;;8.80;99.90;;;;;;5045599;28;20033;-89
2023/12/13 06:48:55;;;;;;;13.30;6.70;;;8.80;99.90;;;;;;5052569;28;20036;-89
2023/12/13 06:51:21;;;;;;;14.88;7.18;;;8.80;99.90;;;;;;5069338;28;20123;-90
2023/12/13 06:53:46;;;;;;;13.95;7.13;;;8.80;99.90;;;;;;5069228;28;20134;-90
2023/12/13 06:56:12;;;;;;;14.18;6.45;;;8.80;99.90;;;;;;5052665;28;20491;-90
2023/12/13 06:58:38;;;;;;;13.15;6.63;;;8.80;99.90;;;;;;5052500;28;20033;-90
2023/12/13 07:01:04;;;;;;;15.07;7.85;;;8.80;99.90;;;;;;5051920;28;20082;-90
2023/12/13 07:03:30;;;;;;;12.63;6.00;;;8.80;99.90;;;;;;5052742;28;20427;-89
2023/12/13 07:05:56;;;;;;;16.35;7.20;;;8.80;99.90;;;;;;5052437;28;20048;-89
2023/12/13 07:08:22;;;;;;;11.00;6.00;;;8.80;99.90;;;;;;5052831;28;20099;-89
2023/12/13 07:10:47;;;;;;;12.25;6.65;;;8.80;99.90;;;;;;5069146;28;20106;-89
2023/12/13 07:13:13;;;;;;;14.90;6.97;;;8.80;99.90;;;;;;5070423;28;20036;-89
2023/12/13 07:15:39;;;;;;;14.25;7.22;;;8.80;99.90;;;;;;5069220;28;20488;-89
2023/12/13 07:18:04;;;;;;;14.80;6.45;;;8.80;99.90;;;;;;5069435;28;20230;-89
2023/12/13 07:20:34;;;;;;;14.10;6.30;;;8.80;99.90;;;;;;5068927;28;20500;-89
2023/12/13 07:22:59;;;;;;;14.15;6.20;;;8.80;99.90;;;;;;5052737;28;20094;-89
2023/12/13 07:25:26;;;;;;;15.77;7.13;;;8.80;99.90;;;;;;5051016;28;20044;-88
2023/12/13 07:27:51;;;;;;;16.48;6.78;;;8.80;99.90;;;;;;5051983;28;20044;-89
2023/12/13 07:30:17;;;;;;;12.65;6.43;;;8.80;99.90;;;;;;5062011;28;20044;-89
2023/12/13 07:32:46;;;;;;;12.63;7.03;;;8.80;99.90;;;;;;5072569;28;20037;-90
2023/12/13 07:35:12;;;;;;;14.05;7.15;;;8.80;99.90;;;;;;5074155;28;20116;-90
2023/12/13 07:37:37;;;;;;;13.50;7.40;;;8.80;99.90;;;;;;5048232;28;20466;-89
2023/12/13 07:40:06;;;;;;;12.38;6.43;;;8.80;99.90;;;;;;5065634;28;20041;-89
2023/12/13 07:42:32;;;;;;;14.45;6.72;;;8.80;99.90;;;;;;5073871;28;20036;-89
2023/12/13 07:44:59;;;;;;;13.02;7.18;;;8.80;99.90;;;;;;5055903;28;20481;-89
2023/12/13 07:47:24;;;;;;;11.75;5.47;;;8.80;99.90;;;;;;5055913;28;20036;-90
2023/12/13 07:49:50;;;;;;;12.90;6.28;;;8.80;99.90;;;;;;5067616;28;20049;-89
2023/12/13 07:52:16;;;;;;;15.45;6.65;;;8.80;99.90;;;;;;5072471;28;20047;-89
2023/12/13 07:54:44;;;;;;;13.30;6.45;;;8.80;99.90;;;;;;5072468;28;20040;-89
2023/12/13 07:57:10;;;;;;;17.65;6.70;;;8.80;99.90;;;;;;5073808;28;20037;-90
2023/12/13 07:59:36;;;;;;;13.60;6.88;;;8.80;99.90;;;;;;5055577;28;20040;-90
2023/12/13 08:02:01;;;;;;;13.27;6.47;;;8.80;99.90;;;;;;5055417;28;20036;-90
2023/12/13 08:04:27;;;;;;;15.48;7.07;;;8.90;99.90;;;;;;5072284;28;20048;-90
2023/12/13 08:06:53;;;;;;;12.88;6.93;;;8.80;99.90;;;;;;5055574;28;20123;-89
2023/12/13 08:09:19;;;;;;;14.93;6.55;;;8.90;99.90;;;;;;5073464;28;20086;-90
2023/12/13 08:11:46;;;;;;;17.42;7.32;;;8.90;99.90;;;;;;5055392;28;20110;-90
2023/12/13 08:14:14;;;;;;;16.23;6.00;;;8.80;99.90;;;;;;5055365;28;20043;-90
2023/12/13 08:16:40;;;;;;;13.15;7.38;;;8.90;99.90;;;;;;5072199;28;20048;-90
2023/12/13 08:19:05;;;;;;;12.55;6.82;;;8.90;99.90;;;;;;5055369;28;20466;-89
2023/12/13 08:21:31;;;;;;;15.43;6.40;;;8.90;99.90;;;;;;5055318;28;20123;-89
2023/12/13 08:23:57;;;;;;;12.55;5.85;;;8.90;99.90;;;;;;5054756;28;20481;-90
2023/12/13 08:26:25;;;;;;;15.05;6.40;;;8.90;99.90;;;;;;5071830;28;20422;-90
2023/12/13 08:28:51;;;;;;;14.35;6.00;;;8.90;99.90;;;;;;5071761;28;20044;-90
2023/12/13 08:31:17;;;;;;;14.13;6.10;;;8.90;99.90;;;;;;5071688;28;20052;-90
2023/12/13 08:33:43;;;;;;;14.35;5.32;;;8.90;99.90;;;;;;5072904;28;20048;-89
2023/12/13 08:36:10;;;;;;;16.10;7.07;;;9.00;99.90;;;;;;5055077;28;20087;-90
2023/12/13 08:38:37;;;;;;;16.95;6.20;;;9.00;99.90;;;;;;5071234;28;20044;-90
2023/12/13 08:41:08;;;;;;;16.73;7.00;;;9.00;99.90;;;;;;5067766;28;20411;-90
2023/12/13 08:43:34;;;;;;;15.43;6.95;;;9.00;99.90;;;;;;5053368;28;20076;-90
2023/12/13 08:45:59;;;;;;;14.55;6.25;;;9.00;99.90;;;;;;5071612;28;20075;-90
2023/12/13 08:48:25;;;;;;;11.10;6.05;;;9.00;99.90;;;;;;5071462;28;20539;-90
2023/12/13 08:50:51;;;;;;;14.55;6.82;;;9.00;99.90;;;;;;5071091;28;20040;-90
2023/12/13 08:53:17;;;;;;;15.73;7.10;;;9.00;99.90;;;;;;5071102;28;20164;-90
2023/12/13 08:55:43;;;;;;;15.07;7.50;;;9.10;99.90;;;;;;5054570;28;20039;-90
2023/12/13 08:58:09;;;;;;;15.75;7.53;;;9.00;99.90;;;;;;5072426;28;20052;-90
2023/12/13 09:00:34;;;;;;;16.05;6.40;;;9.10;99.90;;;;;;5070714;28;20040;-90
2023/12/13 09:03:01;;;;;;;15.27;7.60;;;9.10;99.90;;;;;;5054615;28;20041;-90
2023/12/13 09:05:27;;;;;;;13.52;5.85;;;9.10;99.90;;;;;;5054577;28;20067;-90
2023/12/13 09:07:53;;;;;;;16.90;6.75;;;9.10;99.90;;;;;;5071050;28;20134;-89
2023/12/13 09:10:20;;;;;;;11.88;5.65;;;9.10;99.90;;;;;;5072316;28;20036;-90
2023/12/13 09:12:46;;;;;;;15.68;6.22;;;9.10;99.90;;;;;;5072794;28;20123;-90
2023/12/13 09:15:11;;;;;;;15.80;6.63;;;9.10;99.90;;;;;;5054887;28;20072;-90
2023/12/13 09:17:37;;;;;;;19.10;6.15;;;9.10;99.90;;;;;;5063889;28;20051;-90
2023/12/13 09:20:03;;;;;;;12.10;6.50;;;9.10;99.90;;;;;;5074509;28;20033;-90
2023/12/13 09:22:30;;;;;;;17.00;6.18;;;9.20;99.90;;;;;;5070665;28;20127;-90
2023/12/13 09:24:55;;;;;;;11.60;6.55;;;9.20;99.90;;;;;;5054318;28;20040;-89
2023/12/13 09:27:23;;;;;;;13.35;5.95;;;9.20;99.90;;;;;;5070913;28;20036;-90
2023/12/13 09:29:48;;;;;;;12.02;5.95;;;9.20;99.90;;;;;;5071664;28;20111;-90
2023/12/13 09:32:14;;;;;;;12.98;6.13;;;9.20;99.90;;;;;;5070834;28;20131;-90
2023/12/13 09:34:41;;;;;;;12.88;6.32;;;9.30;99.90;;;;;;5037662;28;20076;-90
2023/12/13 09:37:07;;;;;;;16.35;6.40;;;9.30;99.90;;;;;;5053972;28;20332;-90
2023/12/13 09:39:32;;;;;;;15.40;6.75;;;9.30;99.90;;;;;;5070564;28;20040;-90
2023/12/13 09:42:05;;;;;;;16.58;5.90;;;9.30;99.90;;;;;;5070264;28;20458;-90
2023/12/13 09:44:32;;;;;;;20.05;15.68;;;9.30;99.90;;;;;;5053792;28;20468;-90
2023/12/13 09:47:02;;;;;;;16.10;6.38;;;9.40;99.90;;;;;;5053733;28;20123;-90
2023/12/13 09:49:28;;;;;;;11.63;5.82;;;9.40;99.90;;;;;;5053005;28;20075;-90
2023/12/13 09:51:55;;;;;;;11.35;6.30;;;9.40;99.90;;;;;;5053253;28;20051;-90
2023/12/13 09:54:21;;;;;;;15.02;6.80;;;9.40;99.90;;;;;;5070053;28;20041;-90
2023/12/13 09:56:47;;;;;;;13.38;6.80;;;9.50;99.90;;;;;;5071267;28;20461;-90
2023/12/13 09:59:12;;;;;;;16.45;6.22;;;9.40;99.90;;;;;;5053265;28;20036;-90
2023/12/13 10:01:38;;;;;;;11.88;5.85;;;9.50;99.90;;;;;;5053160;28;20054;-90
2023/12/13 10:04:04;;;;;;;13.75;7.22;;;9.50;99.90;;;;;;5070108;28;20086;-90
2023/12/13 10:06:31;;;;;;;17.40;6.47;;;9.50;99.90;;;;;;5053466;28;20408;-90
2023/12/13 10:08:57;;;;;;;14.63;7.07;;;9.50;99.90;;;;;;5071042;28;20040;-90
2023/12/13 10:11:23;;;;;;;16.67;6.97;;;9.60;99.90;;;;;;5069736;28;20047;-91
2023/12/13 10:13:50;;;;;;;14.85;6.13;;;9.60;99.90;;;;;;5069708;28;20079;-91
2023/12/13 10:16:16;;;;;;;13.25;6.70;;;9.60;99.90;;;;;;5071190;28;20106;-91
2023/12/13 10:18:42;;;;;;;13.93;6.60;;;9.60;99.90;;;;;;5070083;28;20051;-90
2023/12/13 10:21:09;;;;;;;12.63;6.28;;;9.60;99.90;;;;;;5069830;28;20036;-90
2023/12/13 10:23:35;;;;;;;10.57;4.97;;;9.60;99.90;;;;;;5052866;28;20082;-90
2023/12/13 10:26:02;;;;;;;18.70;7.88;;;9.70;99.90;;;;;;5052880;28;20039;-90
2023/12/13 10:28:35;;;;;;;13.18;6.60;;;9.70;99.90;;;;;;5053593;28;20438;-91
2023/12/13 10:31:01;;;;;;;15.38;7.25;;;9.70;99.90;;;;;;5052774;28;20127;-91
2023/12/13 10:33:27;;;;;;;14.30;6.85;;;9.70;99.90;;;;;;5052908;28;20063;-90
2023/12/13 10:35:57;;;;;;;15.60;7.50;;;9.70;99.90;;;;;;5052838;28;20407;-90
2023/12/13 10:38:25;;;;;;;14.82;6.07;;;9.70;99.90;;;;;;5057138;28;20044;-90
2023/12/13 10:40:52;;;;;;;14.40;7.53;;;9.70;99.90;;;;;;5039964;28;20025;-90
2023/12/13 10:43:19;;;;;;;17.23;8.63;;;9.70;99.90;;;;;;5055759;28;20041;-90
2023/12/13 10:46:16;;;;;;;14.43;7.05;;;9.70;99.90;;;;;;5059345;28;20403;-89
2023/12/13 10:48:42;;;;;;;15.65;8.18;;;9.80;99.90;;;;;;5036559;28;20075;-90
2023/12/13 10:51:08;;;;;;;16.90;7.07;;;9.80;99.90;;;;;;5069281;28;20045;-90
2023/12/13 10:53:34;;;;;;;16.13;6.95;;;9.80;99.90;;;;;;5070626;28;20083;-90
2023/12/13 10:56:01;;;;;;;15.45;7.68;;;9.80;99.90;;;;;;5070059;28;20124;-91
2023/12/13 10:58:27;;;;;;;15.20;7.75;;;9.80;99.90;;;;;;5052767;28;20033;-90
2023/12/13 11:00:54;;;;;;;16.10;6.93;;;9.80;99.90;;;;;;5071482;28;20045;-90
2023/12/13 11:03:51;;;;;;;12.00;6.20;;;9.80;99.90;;;;;;5074567;28;20033;-91
2023/12/13 11:06:17;;;;;;;17.40;7.60;;;9.90;99.90;;;;;;5067518;28;20090;-90
2023/12/13 11:08:44;;;;;;;14.32;7.65;;;9.90;99.90;;;;;;5053857;28;20080;-89
2023/12/13 11:11:14;;;;;;;17.63;8.05;;;9.90;99.90;;;;;;5053846;28;20036;-90
2023/12/13 11:13:51;;;;;;;16.10;8.27;;;9.90;99.90;;;;;;5053502;28;20045;-90
2023/12/13 11:16:22;;;;;;;15.27;7.43;;;9.90;99.90;;;;;;5070265;28;20036;-91
2023/12/13 11:18:51;;;;;;;14.68;7.32;;;9.90;99.90;;;;;;5070255;28;20043;-90
2023/12/13 11:21:48;;;;;;;16.48;8.02;;;9.90;99.90;;;;;;5069962;28;20048;-90
2023/12/13 11:24:25;;;;;;;15.57;7.55;;;10.00;99.90;;;;;;5065801;28;20060;-91
2023/12/13 11:26:58;;;;;;;22.55;7.95;;;10.00;99.90;;;;;;5056532;28;20040;-90
2023/12/13 11:29:29;;;;;;;17.75;7.65;;;10.00;99.90;;;;;;5056372;28;20040;-90
2023/12/13 11:31:59;;;;;;;17.15;8.20;;;10.00;99.90;;;;;;5072860;28;20055;-90
2023/12/13 11:34:34;;;;;;;18.75;9.80;;;10.00;99.90;;;;;;5055865;28;20040;-90
2023/12/13 11:37:02;;;;;;;17.42;8.13;;;10.10;99.90;;;;;;5072679;28;20515;-89
2023/12/13 11:39:29;;;;;;;16.80;8.52;;;10.10;99.90;;;;;;5072773;28;20040;-90
2023/12/13 11:41:55;;;;;;;15.75;8.48;;;10.10;99.90;;;;;;5072333;28;20045;-90
2023/12/13 11:44:21;;;;;;;18.88;9.38;;;10.10;99.90;;;;;;5073578;28;20037;-90
2023/12/13 11:46:54;;;;;;;20.35;9.10;;;10.10;99.90;;;;;;5048136;28;20049;-90
2023/12/13 11:49:21;;;;;;;16.35;8.90;;;10.10;99.90;;;;;;5072699;28;20043;-91
2023/12/13 11:51:47;;;;;;;17.73;8.70;;;10.10;99.90;;;;;;5073153;28;20075;-91
2023/12/13 11:54:13;;;;;;;21.60;10.07;;;10.20;99.90;;;;;;5076103;28;20090;-89
2023/12/13 11:56:42;;;;;;;18.38;8.98;;;10.20;99.90;;;;;;5080105;28;20033;-91
2023/12/13 11:59:08;;;;;;;16.30;8.98;;;10.20;99.90;;;;;;5073629;28;20551;-91
2023/12/13 12:01:34;;;;;;;19.67;10.43;;;10.20;99.90;;;;;;5055663;28;20115;-91
2023/12/13 12:04:00;;;;;;;19.45;10.63;;;10.20;99.90;;;;;;5063761;28;20458;-91
2023/12/13 12:06:25;;;;;;;19.73;10.10;;;10.20;99.90;;;;;;5072630;28;20079;-91
2023/12/13 12:08:51;;;;;;;16.92;10.02;;;10.20;99.90;;;;;;5072174;28;20047;-90
2023/12/13 12:11:21;;;;;;;17.42;10.38;;;10.20;99.90;;;;;;5072907;28;20120;-91
2023/12/13 12:13:48;;;;;;;18.55;10.48;;;10.30;99.90;;;;;;5071983;28;20033;-90
2023/12/13 12:16:14;;;;;;;21.13;9.43;;;10.30;99.90;;;;;;5072378;28;20067;-91
2023/12/13 12:18:41;;;;;;;19.02;8.68;;;10.30;99.90;;;;;;5073194;28;20033;-90
2023/12/13 12:21:11;;;;;;;19.38;9.43;;;10.30;99.90;;;;;;5046487;28;20032;-90
2023/12/13 12:23:42;;;;;;;24.00;11.25;;;10.30;99.90;;;;;;5064914;28;20084;-90
2023/12/13 12:26:12;;;;;;;21.25;11.88;;;10.30;99.90;;;;;;5057407;28;20106;-90
2023/12/13 12:28:39;;;;;;;20.63;10.85;;;10.30;99.90;;;;;;5059442;28;20041;-90
2023/12/13 12:31:06;;;;;;;19.35;10.80;;;10.40;99.90;;;;;;5059241;28;20106;-90
2023/12/13 12:33:32;;;;;;;22.73;11.73;;;10.40;99.90;;;;;;5047194;28;20120;-89
2023/12/13 12:35:58;;;;;;;22.67;11.15;;;10.40;99.90;;;;;;5053751;28;20068;-90
2023/12/13 12:38:24;;;;;;;25.33;11.07;;;10.40;99.90;;;;;;5060778;28;20033;-90
2023/12/13 12:40:51;;;;;;;21.15;10.98;;;10.50;99.90;;;;;;5045030;28;20507;-90
2023/12/13 12:43:21;;;;;;;20.90;10.13;;;10.50;99.90;;;;;;5059798;28;20045;-91